Аэропорт: Минеральные Воды. Минеральные Воды

ICAO: URMM

METAR:
2018/09/23 11:00
URMM 231100Z 29003MPS 9999 NSC 28/09 Q1015 R12/090070 NOSIG RMK QFE733/0978
METAR:
2018/09/23 09:24
TAF URMM 230758Z 2309/2409 10003G08MPS 9999 SCT030 TX28/2312Z TN12/2402Z 
      BECMG 2318/2320 27003G08MPS 
      TEMPO 2320/2405 32006G12MPS 3100 -SHRA BR SCT011 BKN020CB